sensor_id;sensor_type;location;lat;lon;timestamp;pressure;altitude;pressure_sealevel;temperature;humidity
61136;BME280;47021;51.340;12.432;2023-08-20T00:29:56;100430.59;;;30.26;54.30
61136;BME280;47021;51.340;12.432;2023-08-20T00:32:22;100425.91;;;29.99;54.75
61136;BME280;47021;51.340;12.432;2023-08-20T00:42:54;100438.53;;;29.49;56.97
61136;BME280;47021;51.340;12.432;2023-08-20T00:45:28;100436.69;;;28.82;59.12
61136;BME280;47021;51.340;12.432;2023-08-20T00:50:37;100450.41;;;29.08;58.92
61136;BME280;47021;51.340;12.432;2023-08-20T00:53:12;100442.44;;;28.74;60.18
61136;BME280;47021;51.340;12.432;2023-08-20T01:01:02;100452.31;;;28.96;59.32
61136;BME280;47021;51.340;12.432;2023-08-20T01:09:05;100470.88;;;28.46;60.60
61136;BME280;47021;51.340;12.432;2023-08-20T01:11:44;100466.41;;;28.52;60.97
61136;BME280;47021;51.340;12.432;2023-08-20T01:14:19;100476.56;;;28.50;60.96
61136;BME280;47021;51.340;12.432;2023-08-20T01:16:45;100465.00;;;28.49;61.18
61136;BME280;47021;51.340;12.432;2023-08-20T01:33:01;100467.22;;;28.41;60.85
61136;BME280;47021;51.340;12.432;2023-08-20T01:35:39;100479.38;;;28.43;60.80
61136;BME280;47021;51.340;12.432;2023-08-20T01:40:54;100479.25;;;28.04;61.95
61136;BME280;47021;51.340;12.432;2023-08-20T01:46:18;100470.47;;;27.96;62.30
61136;BME280;47021;51.340;12.432;2023-08-20T01:48:52;100474.84;;;28.21;61.51
61136;BME280;47021;51.340;12.432;2023-08-20T01:51:26;100483.81;;;28.26;61.82
61136;BME280;47021;51.340;12.432;2023-08-20T01:53:52;100487.13;;;27.75;63.56
61136;BME280;47021;51.340;12.432;2023-08-20T01:56:38;100480.47;;;27.78;63.46
61136;BME280;47021;51.340;12.432;2023-08-20T01:59:25;100491.97;;;27.55;63.97
61136;BME280;47021;51.340;12.432;2023-08-20T02:01:53;100493.66;;;27.68;63.86
61136;BME280;47021;51.340;12.432;2023-08-20T02:04:30;100486.34;;;27.86;63.51
61136;BME280;47021;51.340;12.432;2023-08-20T02:07:02;100491.13;;;27.84;63.90
61136;BME280;47021;51.340;12.432;2023-08-20T02:09:39;100497.13;;;27.57;64.48
61136;BME280;47021;51.340;12.432;2023-08-20T02:12:19;100490.78;;;27.51;65.02
61136;BME280;47021;51.340;12.432;2023-08-20T02:17:28;100501.50;;;27.81;64.06
61136;BME280;47021;51.340;12.432;2023-08-20T02:20:08;100511.41;;;27.80;64.00
61136;BME280;47021;51.340;12.432;2023-08-20T02:22:50;100503.72;;;27.24;66.15
61136;BME280;47021;51.340;12.432;2023-08-20T02:25:23;100507.94;;;27.50;65.36
61136;BME280;47021;51.340;12.432;2023-08-20T02:30:37;100514.88;;;27.40;65.67
61136;BME280;47021;51.340;12.432;2023-08-20T02:33:05;100516.75;;;27.21;66.30
61136;BME280;47021;51.340;12.432;2023-08-20T02:35:32;100517.59;;;27.81;64.62
61136;BME280;47021;51.340;12.432;2023-08-20T02:38:06;100523.38;;;27.55;65.17
61136;BME280;47021;51.340;12.432;2023-08-20T02:40:43;100524.72;;;27.27;65.68
61136;BME280;47021;51.340;12.432;2023-08-20T02:43:11;100523.91;;;27.45;65.93
61136;BME280;47021;51.340;12.432;2023-08-20T02:45:54;100528.69;;;26.89;67.59
61136;BME280;47021;51.340;12.432;2023-08-20T02:48:22;100524.06;;;26.96;67.76
61136;BME280;47021;51.340;12.432;2023-08-20T02:50:50;100523.44;;;27.48;66.22
61136;BME280;47021;51.340;12.432;2023-08-20T02:53:28;100527.88;;;27.84;64.90
61136;BME280;47021;51.340;12.432;2023-08-20T02:56:04;100522.47;;;27.72;64.97
61136;BME280;47021;51.340;12.432;2023-08-20T03:04:07;100525.66;;;27.03;67.82
61136;BME280;47021;51.340;12.432;2023-08-20T03:09:26;100533.06;;;26.65;69.32
61136;BME280;47021;51.340;12.432;2023-08-20T03:11:58;100526.56;;;26.73;68.87
61136;BME280;47021;51.340;12.432;2023-08-20T03:17:01;100541.50;;;27.05;67.79
61136;BME280;47021;51.340;12.432;2023-08-20T03:27:49;100538.59;;;26.21;70.56
61136;BME280;47021;51.340;12.432;2023-08-20T03:30:23;100525.97;;;26.71;69.03
61136;BME280;47021;51.340;12.432;2023-08-20T03:33:01;100534.44;;;27.10;67.97
61136;BME280;47021;51.340;12.432;2023-08-20T03:35:32;100530.06;;;26.06;71.71
61136;BME280;47021;51.340;12.432;2023-08-20T03:38:13;100533.56;;;26.55;69.64
61136;BME280;47021;51.340;12.432;2023-08-20T03:40:49;100533.63;;;26.49;69.85
61136;BME280;47021;51.340;12.432;2023-08-20T03:46:30;100543.00;;;26.09;71.06
61136;BME280;47021;51.340;12.432;2023-08-20T03:54:22;100545.66;;;26.09;70.93
61136;BME280;47021;51.340;12.432;2023-08-20T03:56:52;100550.09;;;26.28;70.50
61136;BME280;47021;51.340;12.432;2023-08-20T03:59:17;100551.03;;;26.83;68.46
61136;BME280;47021;51.340;12.432;2023-08-20T04:09:56;100547.56;;;26.08;72.50
61136;BME280;47021;51.340;12.432;2023-08-20T04:12:22;100581.25;;;25.84;74.62
61136;BME280;47021;51.340;12.432;2023-08-20T04:14:50;100588.09;;;26.61;72.29
61136;BME280;47021;51.340;12.432;2023-08-20T04:17:15;100594.28;;;26.12;73.02
61136;BME280;47021;51.340;12.432;2023-08-20T04:19:40;100594.50;;;26.04;73.44
61136;BME280;47021;51.340;12.432;2023-08-20T04:22:05;100582.47;;;26.20;73.16
61136;BME280;47021;51.340;12.432;2023-08-20T04:24:30;100579.88;;;25.75;74.74
61136;BME280;47021;51.340;12.432;2023-08-20T04:26:56;100595.34;;;26.05;73.92
61136;BME280;47021;51.340;12.432;2023-08-20T04:29:21;100611.88;;;25.95;74.49
61136;BME280;47021;51.340;12.432;2023-08-20T04:31:47;100604.53;;;25.84;73.82
61136;BME280;47021;51.340;12.432;2023-08-20T04:34:12;100600.88;;;25.72;74.84
61136;BME280;47021;51.340;12.432;2023-08-20T04:36:40;100603.78;;;26.02;73.75
61136;BME280;47021;51.340;12.432;2023-08-20T04:39:13;100600.06;;;25.20;76.73
61136;BME280;47021;51.340;12.432;2023-08-20T04:41:38;100583.16;;;26.09;73.85
61136;BME280;47021;51.340;12.432;2023-08-20T04:44:03;100593.97;;;25.58;74.84
61136;BME280;47021;51.340;12.432;2023-08-20T04:46:29;100602.31;;;26.12;73.32
61136;BME280;47021;51.340;12.432;2023-08-20T04:48:56;100598.19;;;26.41;71.23
61136;BME280;47021;51.340;12.432;2023-08-20T04:51:22;100583.00;;;26.35;72.10
61136;BME280;47021;51.340;12.432;2023-08-20T04:53:48;100591.88;;;25.66;73.92
61136;BME280;47021;51.340;12.432;2023-08-20T04:56:13;100594.31;;;26.06;72.69
61136;BME280;47021;51.340;12.432;2023-08-20T04:58:41;100605.50;;;25.96;73.73
61136;BME280;47021;51.340;12.432;2023-08-20T05:01:06;100612.69;;;26.58;71.19
61136;BME280;47021;51.340;12.432;2023-08-20T05:03:40;100610.66;;;26.53;70.78
61136;BME280;47021;51.340;12.432;2023-08-20T05:08:35;100619.00;;;26.39;70.87
61136;BME280;47021;51.340;12.432;2023-08-20T05:13:50;100622.09;;;26.11;71.92
61136;BME280;47021;51.340;12.432;2023-08-20T05:19:07;100624.47;;;26.50;70.41
61136;BME280;47021;51.340;12.432;2023-08-20T05:24:15;100627.31;;;27.05;68.48
61136;BME280;47021;51.340;12.432;2023-08-20T05:26:43;100638.59;;;27.32;67.35
61136;BME280;47021;51.340;12.432;2023-08-20T05:29:08;100636.69;;;26.46;69.86
61136;BME280;47021;51.340;12.432;2023-08-20T05:31:47;100635.97;;;26.33;69.96
61136;BME280;47021;51.340;12.432;2023-08-20T05:34:13;100635.50;;;26.42;69.84
61136;BME280;47021;51.340;12.432;2023-08-20T05:36:49;100629.69;;;26.70;68.86
61136;BME280;47021;51.340;12.432;2023-08-20T05:39:20;100645.34;;;26.17;71.05
61136;BME280;47021;51.340;12.432;2023-08-20T05:41:56;100645.41;;;27.09;67.88
61136;BME280;47021;51.340;12.432;2023-08-20T05:44:34;100653.28;;;27.65;66.19
61136;BME280;47021;51.340;12.432;2023-08-20T05:46:59;100660.94;;;27.44;66.18
61136;BME280;47021;51.340;12.432;2023-08-20T05:49:24;100654.75;;;26.82;67.61
61136;BME280;47021;51.340;12.432;2023-08-20T05:51:53;100656.78;;;27.05;67.64
61136;BME280;47021;51.340;12.432;2023-08-20T05:57:03;100662.22;;;27.77;65.83
61136;BME280;47021;51.340;12.432;2023-08-20T05:59:42;100663.94;;;27.54;65.88
61136;BME280;47021;51.340;12.432;2023-08-20T06:02:07;100671.28;;;26.79;68.30
61136;BME280;47021;51.340;12.432;2023-08-20T06:04:43;100661.13;;;27.06;67.69
61136;BME280;47021;51.340;12.432;2023-08-20T06:07:18;100666.25;;;27.68;66.23
61136;BME280;47021;51.340;12.432;2023-08-20T06:09:45;100655.97;;;27.95;64.44
61136;BME280;47021;51.340;12.432;2023-08-20T06:12:21;100661.19;;;27.90;64.85
61136;BME280;47021;51.340;12.432;2023-08-20T06:17:32;100662.25;;;27.41;66.35
61136;BME280;47021;51.340;12.432;2023-08-20T06:22:59;100668.47;;;27.71;64.46
61136;BME280;47021;51.340;12.432;2023-08-20T06:25:30;100671.94;;;27.17;66.76
61136;BME280;47021;51.340;12.432;2023-08-20T06:28:02;100675.03;;;27.57;65.08
61136;BME280;47021;51.340;12.432;2023-08-20T06:30:35;100680.41;;;28.23;63.70
61136;BME280;47021;51.340;12.432;2023-08-20T06:33:13;100668.69;;;28.18;63.66
61136;BME280;47021;51.340;12.432;2023-08-20T06:38:41;100690.75;;;27.72;64.74
61136;BME280;47021;51.340;12.432;2023-08-20T06:43:50;100695.75;;;28.87;61.07
61136;BME280;47021;51.340;12.432;2023-08-20T06:46:20;100699.94;;;27.82;63.26
61136;BME280;47021;51.340;12.432;2023-08-20T06:51:29;100712.50;;;27.03;66.02
61136;BME280;47021;51.340;12.432;2023-08-20T06:54:07;100711.22;;;27.37;65.35
61136;BME280;47021;51.340;12.432;2023-08-20T06:59:31;100723.69;;;28.45;62.02
61136;BME280;47021;51.340;12.432;2023-08-20T07:02:03;100718.81;;;28.24;62.05
61136;BME280;47021;51.340;12.432;2023-08-20T07:04:35;100729.09;;;27.79;63.22
61136;BME280;47021;51.340;12.432;2023-08-20T07:09:50;100731.63;;;27.74;64.22
61136;BME280;47021;51.340;12.432;2023-08-20T07:12:26;100721.94;;;27.73;63.09
61136;BME280;47021;51.340;12.432;2023-08-20T07:20:24;100736.19;;;27.30;63.58
61136;BME280;47021;51.340;12.432;2023-08-20T07:25:33;100730.44;;;27.88;61.92
61136;BME280;47021;51.340;12.432;2023-08-20T07:28:06;100745.56;;;28.19;60.90
61136;BME280;47021;51.340;12.432;2023-08-20T07:30:51;100737.91;;;28.04;61.84
61136;BME280;47021;51.340;12.432;2023-08-20T07:36:08;100733.72;;;28.38;60.07
61136;BME280;47021;51.340;12.432;2023-08-20T07:38:34;100739.59;;;28.76;59.03
61136;BME280;47021;51.340;12.432;2023-08-20T07:41:20;100736.63;;;29.19;57.60
61136;BME280;47021;51.340;12.432;2023-08-20T07:43:54;100732.53;;;27.68;61.53
61136;BME280;47021;51.340;12.432;2023-08-20T07:49:03;100737.69;;;28.65;59.01
61136;BME280;47021;51.340;12.432;2023-08-20T07:51:37;100731.56;;;28.58;58.81
61136;BME280;47021;51.340;12.432;2023-08-20T07:54:15;100736.13;;;28.99;57.45
61136;BME280;47021;51.340;12.432;2023-08-20T07:56:49;100747.38;;;29.42;56.76
61136;BME280;47021;51.340;12.432;2023-08-20T08:04:35;100756.75;;;27.79;55.83
